createdAt,value
2023-11-23T00:00:12.476Z,97213.47
2023-11-23T00:02:42.321Z,97196.72
2023-11-23T00:05:10.241Z,97175.91
2023-11-23T00:07:36.957Z,97175.91
2023-11-23T00:10:05.896Z,97174.56
2023-11-23T00:12:32.525Z,97175.56
2023-11-23T00:15:01.329Z,97159.53
2023-11-23T00:17:28.680Z,97171.69
2023-11-23T00:19:55.600Z,97172.50
2023-11-23T00:22:22.617Z,97163.63
2023-11-23T00:24:49.430Z,97162.34
2023-11-23T00:27:16.213Z,97154.78
2023-11-23T00:29:43.022Z,97151.13
2023-11-23T00:32:09.517Z,97159.63
2023-11-23T00:34:36.216Z,97163.88
2023-11-23T00:37:02.724Z,97159.63
2023-11-23T00:39:29.228Z,97151.59
2023-11-23T00:41:55.753Z,97138.56
2023-11-23T00:44:22.398Z,97143.69
2023-11-23T00:46:49.150Z,97138.47
2023-11-23T00:49:15.692Z,97147.06
2023-11-23T00:51:43.432Z,97150.97
2023-11-23T00:54:09.961Z,97155.44
2023-11-23T00:56:38.159Z,97158.59
2023-11-23T00:59:04.880Z,97166.72
2023-11-23T01:01:31.550Z,97162.81
2023-11-23T01:03:58.272Z,97166.44
2023-11-23T01:06:24.876Z,97167.31
2023-11-23T01:08:51.442Z,97163.09
2023-11-23T01:11:17.972Z,97164.06
2023-11-23T01:13:44.725Z,97165.09
2023-11-23T01:16:11.376Z,97165.66
2023-11-23T01:18:39.169Z,97171.66
2023-11-23T01:21:06.062Z,97168.81
2023-11-23T01:23:32.724Z,97168.91
2023-11-23T01:25:59.195Z,97173.06
2023-11-23T01:28:25.659Z,97180.88
2023-11-23T01:30:52.209Z,97179.88
2023-11-23T01:33:19.155Z,97187.09
2023-11-23T01:35:45.852Z,97184.41
2023-11-23T01:38:12.398Z,97178.94
2023-11-23T01:40:39.019Z,97192.28
2023-11-23T01:43:12.109Z,97181.88
2023-11-23T01:45:39.527Z,97194.16
2023-11-23T01:48:06.753Z,97184.50
2023-11-23T01:50:35.253Z,97180.78
2023-11-23T01:53:04.668Z,97186.47
2023-11-23T01:55:31.517Z,97190.34
2023-11-23T01:57:59.587Z,97180.75
2023-11-23T02:00:26.848Z,97165.66
2023-11-23T02:02:53.494Z,97175.25
2023-11-23T02:05:23.285Z,97169.19
2023-11-23T02:07:49.890Z,97171.84
2023-11-23T02:10:16.636Z,97169.19
2023-11-23T02:12:44.732Z,97163.19
2023-11-23T02:15:11.590Z,97160.59
2023-11-23T02:17:38.415Z,97155.22
2023-11-23T02:20:10.126Z,97155.22
2023-11-23T02:22:37.399Z,97159.16
2023-11-23T02:25:07.648Z,97163.25
2023-11-23T02:27:37.620Z,97159.34
2023-11-23T02:30:07.089Z,97152.31
2023-11-23T02:32:36.934Z,97150.25
2023-11-23T02:35:04.653Z,97145.91
2023-11-23T02:37:31.192Z,97155.75
2023-11-23T02:39:57.659Z,97157.53
2023-11-23T02:42:24.331Z,97159.91
2023-11-23T02:44:51.118Z,97148.94
2023-11-23T02:47:17.648Z,97144.78
2023-11-23T02:49:44.143Z,97134.41
2023-11-23T02:52:10.670Z,97158.84
2023-11-23T02:54:37.107Z,97171.91
2023-11-23T02:57:03.773Z,97180.50
2023-11-23T02:59:30.320Z,97174.22
2023-11-23T03:01:56.946Z,97164.25
2023-11-23T03:04:23.549Z,97166.69
2023-11-23T03:06:50.095Z,97171.66
2023-11-23T03:09:20.586Z,97166.19
2023-11-23T03:11:47.642Z,97157.78
2023-11-23T03:14:14.225Z,97148.56
2023-11-23T03:16:42.087Z,97164.44
2023-11-23T03:19:09.116Z,97159.78
2023-11-23T03:21:35.766Z,97161.06
2023-11-23T03:24:02.340Z,97163.97
2023-11-23T03:26:28.867Z,97152.00
2023-11-23T03:28:55.329Z,97158.03
2023-11-23T03:31:22.029Z,97156.78
2023-11-23T03:33:48.545Z,97156.78
2023-11-23T03:36:15.130Z,97147.69
2023-11-23T03:38:41.612Z,97154.75
2023-11-23T03:41:08.131Z,97172.97
2023-11-23T03:43:34.635Z,97171.47
2023-11-23T03:46:01.164Z,97170.59
2023-11-23T03:48:27.680Z,97164.06
2023-11-23T03:50:54.263Z,97175.56
2023-11-23T03:53:20.794Z,97183.09
2023-11-23T03:55:47.352Z,97193.81
2023-11-23T03:58:13.873Z,97194.84
2023-11-23T04:00:41.414Z,97196.44
2023-11-23T04:03:08.954Z,97193.53
2023-11-23T04:05:35.541Z,97187.38
2023-11-23T04:08:02.080Z,97194.75
2023-11-23T04:10:28.577Z,97189.47
2023-11-23T04:12:55.064Z,97190.28
2023-11-23T04:15:21.644Z,97193.16
2023-11-23T04:17:48.490Z,97186.38
2023-11-23T04:20:15.268Z,97186.63
2023-11-23T04:22:42.055Z,97175.41
2023-11-23T04:25:09.055Z,97184.78
2023-11-23T04:27:35.591Z,97183.41
2023-11-23T04:30:02.212Z,97183.44
2023-11-23T04:32:28.889Z,97184.78
2023-11-23T04:34:55.396Z,97180.34
2023-11-23T04:37:25.079Z,97177.94
2023-11-23T04:39:52.438Z,97169.94
2023-11-23T04:42:19.653Z,97144.97
2023-11-23T04:44:46.359Z,97146.16
2023-11-23T04:47:12.878Z,97136.25
2023-11-23T04:49:39.635Z,97139.34
2023-11-23T04:52:06.953Z,97131.41
2023-11-23T04:54:33.500Z,97151.47
2023-11-23T04:57:00.362Z,97151.47
2023-11-23T04:59:28.036Z,97148.06
2023-11-23T05:01:55.815Z,97148.44
2023-11-23T05:04:22.437Z,97132.81
2023-11-23T05:06:49.743Z,97139.28
2023-11-23T05:09:16.329Z,97144.50
2023-11-23T05:11:42.851Z,97144.81
2023-11-23T05:14:09.690Z,97154.41
2023-11-23T05:16:36.793Z,97176.84
2023-11-23T05:19:03.783Z,97169.81
2023-11-23T05:21:30.967Z,97192.03
2023-11-23T05:23:59.550Z,97189.69
2023-11-23T05:26:27.636Z,97185.25
2023-11-23T05:28:54.200Z,97191.06
2023-11-23T05:31:20.697Z,97183.50
2023-11-23T05:33:47.225Z,97186.59
2023-11-23T05:36:13.838Z,97178.00
2023-11-23T05:38:40.338Z,97170.16
2023-11-23T05:41:06.916Z,97165.16
2023-11-23T05:43:33.390Z,97177.50
2023-11-23T05:45:59.911Z,97178.06
2023-11-23T05:48:26.577Z,97164.22
2023-11-23T05:50:54.095Z,97168.09
2023-11-23T05:53:20.647Z,97163.91
2023-11-23T05:55:47.267Z,97166.53
2023-11-23T05:58:13.807Z,97161.09
2023-11-23T06:00:40.571Z,97164.94
2023-11-23T06:03:07.115Z,97167.06
2023-11-23T06:05:34.015Z,97178.31
2023-11-23T06:08:00.603Z,97184.59
2023-11-23T06:10:28.369Z,97185.91
2023-11-23T06:12:55.045Z,97193.22
2023-11-23T06:15:21.622Z,97180.72
2023-11-23T06:17:49.390Z,97173.13
2023-11-23T06:20:16.244Z,97169.19
2023-11-23T06:22:42.745Z,97166.31
2023-11-23T06:25:09.263Z,97159.84
2023-11-23T06:27:35.791Z,97160.81
2023-11-23T06:30:02.689Z,97163.41
2023-11-23T06:32:29.355Z,97151.97
2023-11-23T06:34:55.833Z,97160.50
2023-11-23T06:37:22.301Z,97149.81
2023-11-23T06:39:48.947Z,97148.22
2023-11-23T06:42:15.472Z,97132.09
2023-11-23T06:44:41.996Z,97150.84
2023-11-23T06:47:08.501Z,97159.69
2023-11-23T06:49:36.276Z,97142.25
2023-11-23T06:52:02.950Z,97139.84
2023-11-23T06:54:29.579Z,97144.25
2023-11-23T06:56:58.348Z,97155.25
2023-11-23T06:59:24.956Z,97144.53
2023-11-23T07:01:51.687Z,97153.63
2023-11-23T07:04:18.244Z,97148.13
2023-11-23T07:06:44.779Z,97148.06
2023-11-23T07:09:14.434Z,97151.19
2023-11-23T07:11:41.556Z,97149.28
2023-11-23T07:14:08.351Z,97144.03
2023-11-23T07:16:37.373Z,97155.44
2023-11-23T07:19:04.018Z,97136.78
2023-11-23T07:21:30.779Z,97145.03
2023-11-23T07:23:57.613Z,97131.88
2023-11-23T07:26:24.369Z,97137.56
2023-11-23T07:28:50.901Z,97140.41
2023-11-23T07:31:17.864Z,97140.25
2023-11-23T07:33:45.928Z,97136.00
2023-11-23T07:36:12.695Z,97130.53
2023-11-23T07:38:39.269Z,97141.13
2023-11-23T07:41:07.741Z,97135.63
2023-11-23T07:43:35.010Z,97133.28
2023-11-23T07:46:01.618Z,97140.34
2023-11-23T07:48:28.518Z,97132.75
2023-11-23T07:50:55.190Z,97135.78
2023-11-23T07:53:23.292Z,97142.00
2023-11-23T07:55:50.421Z,97137.50
2023-11-23T07:58:17.317Z,97136.59
2023-11-23T08:00:44.298Z,97136.00
2023-11-23T08:03:11.428Z,97126.59
2023-11-23T08:05:38.353Z,97119.91
2023-11-23T08:08:05.173Z,97114.03
2023-11-23T08:10:31.813Z,97111.06
2023-11-23T08:12:59.616Z,97103.66
2023-11-23T08:15:26.541Z,97112.00
2023-11-23T08:17:58.759Z,97121.69
2023-11-23T08:20:33.389Z,97120.91
2023-11-23T08:23:00.311Z,97112.28
2023-11-23T08:25:26.966Z,97107.22
2023-11-23T08:27:53.471Z,97118.56
2023-11-23T08:30:22.804Z,97116.88
2023-11-23T08:32:49.829Z,97127.06
2023-11-23T08:35:16.371Z,97126.19
2023-11-23T08:37:42.892Z,97121.47
2023-11-23T08:40:09.864Z,97125.09
2023-11-23T08:42:36.343Z,97139.97
2023-11-23T08:45:03.082Z,97132.13
2023-11-23T08:47:29.755Z,97124.16
2023-11-23T08:49:56.808Z,97134.63
2023-11-23T08:52:23.754Z,97134.72
2023-11-23T08:54:50.325Z,97140.84
2023-11-23T08:57:16.945Z,97151.59
2023-11-23T08:59:43.561Z,97153.88
2023-11-23T09:02:17.482Z,97155.56
2023-11-23T09:04:47.714Z,97150.59
2023-11-23T09:07:14.580Z,97159.91
2023-11-23T09:09:41.363Z,97166.59
2023-11-23T09:12:08.524Z,97172.34
2023-11-23T09:14:43.248Z,97170.97
2023-11-23T09:17:16.068Z,97171.28
2023-11-23T09:19:43.165Z,97169.16
2023-11-23T09:22:11.829Z,97161.84
2023-11-23T09:24:39.431Z,97164.94
2023-11-23T09:27:10.885Z,97166.38
2023-11-23T09:29:37.778Z,97157.13
2023-11-23T09:32:04.892Z,97146.50
2023-11-23T09:34:31.544Z,97148.06
2023-11-23T09:36:58.060Z,97133.53
2023-11-23T09:39:25.085Z,97126.09
2023-11-23T09:41:53.158Z,97121.03
2023-11-23T09:44:19.911Z,97112.69
2023-11-23T09:46:47.550Z,97118.13
2023-11-23T09:49:14.384Z,97115.59
2023-11-23T09:51:42.870Z,97114.63
2023-11-23T09:54:09.753Z,97108.34
2023-11-23T09:56:36.347Z,97103.00
2023-11-23T09:59:02.895Z,97103.78
2023-11-23T10:01:31.967Z,97089.22
2023-11-23T10:03:59.592Z,97084.69
2023-11-23T10:06:26.772Z,97079.72
2023-11-23T10:08:53.382Z,97080.78
2023-11-23T10:11:19.902Z,97065.94
2023-11-23T10:13:47.488Z,97064.44
2023-11-23T10:16:14.098Z,97049.50
2023-11-23T10:18:44.857Z,97049.19
2023-11-23T10:21:13.962Z,97043.53
2023-11-23T10:23:46.904Z,97045.81
2023-11-23T10:26:13.442Z,97036.00
2023-11-23T10:28:40.021Z,97047.00
2023-11-23T10:31:07.189Z,97038.25
2023-11-23T10:33:38.070Z,97036.66
2023-11-23T10:36:09.927Z,97038.91
2023-11-23T10:38:44.152Z,97036.06
2023-11-23T10:41:12.944Z,97023.53
2023-11-23T10:43:43.325Z,97022.78
2023-11-23T10:46:11.211Z,97005.97
2023-11-23T10:48:39.449Z,97011.50
2023-11-23T10:51:07.410Z,97005.84
2023-11-23T10:53:34.220Z,97006.66
2023-11-23T10:56:18.972Z,96995.84
2023-11-23T10:58:49.270Z,96994.75
2023-11-23T11:01:22.696Z,96988.59
2023-11-23T11:03:50.630Z,96977.38
2023-11-23T11:06:18.976Z,96974.28
2023-11-23T11:08:48.672Z,96972.16
2023-11-23T11:11:24.188Z,96961.94
2023-11-23T11:13:59.292Z,96957.78
2023-11-23T11:16:36.276Z,96945.06
2023-11-23T11:19:08.029Z,96946.41
2023-11-23T11:21:42.706Z,96954.16
2023-11-23T11:24:24.860Z,96935.47
2023-11-23T11:26:51.566Z,96928.13
2023-11-23T11:29:18.613Z,96922.34
2023-11-23T11:31:50.600Z,96914.19
2023-11-23T11:34:24.040Z,96910.50
2023-11-23T11:36:58.437Z,96903.50
2023-11-23T11:39:30.244Z,96899.03
2023-11-23T11:42:00.864Z,96898.97
2023-11-23T11:44:30.438Z,96897.81
2023-11-23T11:47:00.662Z,96890.84
2023-11-23T11:49:27.943Z,96877.75
2023-11-23T11:51:54.831Z,96881.94
2023-11-23T11:54:23.122Z,96874.84
2023-11-23T11:56:50.852Z,96876.44
2023-11-23T11:59:21.494Z,96863.03
2023-11-23T12:01:49.342Z,96870.72
2023-11-23T12:04:20.492Z,96864.06
2023-11-23T12:06:50.125Z,96868.13
2023-11-23T12:09:30.960Z,96864.72
2023-11-23T12:12:06.220Z,96857.31
2023-11-23T12:14:35.351Z,96853.91
2023-11-23T12:17:13.034Z,96831.25
2023-11-23T12:19:54.131Z,96829.22
2023-11-23T12:22:26.616Z,96821.38
2023-11-23T12:24:53.849Z,96810.38
2023-11-23T12:27:22.282Z,96810.88
2023-11-23T12:29:49.973Z,96794.22
2023-11-23T12:32:17.890Z,96792.50
2023-11-23T12:34:44.563Z,96787.53
2023-11-23T12:37:11.134Z,96789.72
2023-11-23T12:39:37.684Z,96790.03
2023-11-23T12:42:04.615Z,96783.53
2023-11-23T12:44:31.167Z,96791.25
2023-11-23T12:46:57.635Z,96788.50
2023-11-23T12:49:24.156Z,96790.19
2023-11-23T12:51:50.696Z,96780.13
2023-11-23T12:54:17.293Z,96782.16
2023-11-23T12:56:43.840Z,96782.44
2023-11-23T12:59:11.482Z,96768.41
2023-11-23T13:01:39.629Z,96771.81
2023-11-23T13:04:09.096Z,96787.56
2023-11-23T13:06:37.542Z,96780.44
2023-11-23T13:09:05.355Z,96769.19
2023-11-23T13:11:32.757Z,96765.03
2023-11-23T13:13:59.524Z,96757.59
2023-11-23T13:16:26.276Z,96752.19
2023-11-23T13:19:06.458Z,96743.41
2023-11-23T13:21:39.867Z,96729.81
2023-11-23T13:24:07.789Z,96724.56
2023-11-23T13:26:34.980Z,96733.38
2023-11-23T13:29:01.618Z,96721.66
2023-11-23T13:31:28.854Z,96727.53
2023-11-23T13:33:55.761Z,96727.81
2023-11-23T13:36:23.784Z,96723.03
2023-11-23T13:38:51.585Z,96717.47
2023-11-23T13:41:19.697Z,96711.28
2023-11-23T13:43:46.358Z,96711.47
2023-11-23T13:46:14.032Z,96703.44
2023-11-23T13:48:40.713Z,96703.75
2023-11-23T13:51:07.437Z,96692.63
2023-11-23T13:53:33.961Z,96691.72
2023-11-23T13:56:00.656Z,96692.47
2023-11-23T13:58:30.887Z,96682.91
2023-11-23T14:00:57.436Z,96686.47
2023-11-23T14:03:24.087Z,96679.53
2023-11-23T14:05:51.719Z,96657.59
2023-11-23T14:08:21.162Z,96669.03
2023-11-23T14:10:47.829Z,96658.69
2023-11-23T14:13:14.453Z,96673.81
2023-11-23T14:15:41.099Z,96665.19
2023-11-23T14:18:11.264Z,96674.75
2023-11-23T14:20:37.905Z,96662.72
2023-11-23T14:23:07.281Z,96667.19
2023-11-23T14:25:33.816Z,96665.50
2023-11-23T14:28:00.661Z,96665.06
2023-11-23T14:30:28.601Z,96662.25
2023-11-23T14:32:55.353Z,96663.63
2023-11-23T14:35:22.755Z,96661.16
2023-11-23T14:37:51.192Z,96655.63
2023-11-23T14:40:20.176Z,96648.69
2023-11-23T14:42:56.140Z,96650.69
2023-11-23T14:45:26.211Z,96644.34
2023-11-23T14:47:54.391Z,96650.38
2023-11-23T14:50:21.232Z,96652.84
2023-11-23T14:52:48.249Z,96650.22
2023-11-23T14:55:15.764Z,96641.56
2023-11-23T14:57:42.843Z,96641.41
2023-11-23T15:00:10.717Z,96633.06
2023-11-23T15:02:41.432Z,96627.38
2023-11-23T15:05:13.408Z,96631.06
2023-11-23T15:07:42.835Z,96627.84
2023-11-23T15:10:13.321Z,96626.25
2023-11-23T15:12:54.268Z,96623.94
2023-11-23T15:15:21.986Z,96620.06
2023-11-23T15:17:50.598Z,96619.56
2023-11-23T15:20:17.874Z,96615.56
2023-11-23T15:22:44.450Z,96619.38
2023-11-23T15:25:12.078Z,96625.81
2023-11-23T15:27:43.867Z,96610.41
2023-11-23T15:30:12.664Z,96614.09
2023-11-23T15:32:40.397Z,96615.00
2023-11-23T15:35:08.631Z,96612.06
2023-11-23T15:37:35.710Z,96617.44
2023-11-23T15:40:02.339Z,96613.25
2023-11-23T15:42:29.031Z,96604.16
2023-11-23T15:44:55.571Z,96604.47
2023-11-23T15:47:22.097Z,96612.16
2023-11-23T15:49:48.644Z,96601.50
2023-11-23T15:52:15.253Z,96594.56
2023-11-23T15:54:42.196Z,96592.25
2023-11-23T15:57:08.805Z,96585.31
2023-11-23T15:59:36.965Z,96578.97
2023-11-23T16:02:04.900Z,96596.78
2023-11-23T16:04:31.737Z,96592.94
2023-11-23T16:06:58.640Z,96589.44
2023-11-23T16:09:25.459Z,96579.56
2023-11-23T16:11:52.428Z,96587.88
2023-11-23T16:14:19.012Z,96578.19
2023-11-23T16:16:45.869Z,96579.88
2023-11-23T16:19:13.227Z,96585.25
2023-11-23T16:21:41.507Z,96582.00
2023-11-23T16:24:15.167Z,96580.03
2023-11-23T16:26:43.663Z,96574.78
2023-11-23T16:29:12.303Z,96570.88
2023-11-23T16:31:43.612Z,96564.13
2023-11-23T16:34:11.082Z,96550.59
2023-11-23T16:36:40.414Z,96564.03
2023-11-23T16:39:08.450Z,96560.66
2023-11-23T16:41:35.336Z,96554.38
2023-11-23T16:44:02.183Z,96556.69
2023-11-23T16:46:28.935Z,96541.28
2023-11-23T16:48:56.006Z,96534.66
2023-11-23T16:51:22.816Z,96532.50
2023-11-23T16:53:52.177Z,96525.72
2023-11-23T16:56:20.383Z,96535.28
2023-11-23T16:58:47.084Z,96542.69
2023-11-23T17:01:14.139Z,96539.16
2023-11-23T17:03:40.734Z,96535.78
2023-11-23T17:06:08.595Z,96529.47
2023-11-23T17:08:35.324Z,96519.31
2023-11-23T17:11:01.904Z,96521.47
2023-11-23T17:13:28.449Z,96519.63
2023-11-23T17:15:54.926Z,96510.72
2023-11-23T17:18:21.775Z,96503.00
2023-11-23T17:20:48.381Z,96505.16
2023-11-23T17:23:16.089Z,96507.00
2023-11-23T17:25:43.293Z,96507.94
2023-11-23T17:28:09.899Z,96500.25
2023-11-23T17:30:36.726Z,96494.09
2023-11-23T17:33:03.773Z,96514.09
2023-11-23T17:35:30.763Z,96501.63
2023-11-23T17:37:57.654Z,96507.03
2023-11-23T17:40:24.758Z,96503.00
2023-11-23T17:42:51.587Z,96486.69
2023-11-23T17:45:18.483Z,96502.56
2023-11-23T17:47:47.936Z,96504.25
2023-11-23T17:50:15.499Z,96489.16
2023-11-23T17:52:42.871Z,96495.31
2023-11-23T17:55:09.853Z,96486.84
2023-11-23T17:57:37.116Z,96484.84
2023-11-23T18:00:07.466Z,96492.53
2023-11-23T18:02:34.801Z,96485.78
2023-11-23T18:05:01.570Z,96485.78
2023-11-23T18:07:28.157Z,96489.78
2023-11-23T18:09:54.896Z,96488.09
2023-11-23T18:12:21.593Z,96495.78
2023-11-23T18:14:48.314Z,96484.38
2023-11-23T18:17:14.893Z,96480.38
2023-11-23T18:19:41.713Z,96477.63
2023-11-23T18:22:09.407Z,96468.34
2023-11-23T18:24:36.961Z,96478.22
2023-11-23T18:27:06.161Z,96464.53
2023-11-23T18:29:32.962Z,96472.06
2023-11-23T18:31:59.981Z,96461.91
2023-11-23T18:34:26.738Z,96459.28
2023-11-23T18:36:53.251Z,96467.91
2023-11-23T18:39:21.423Z,96465.72
2023-11-23T18:41:48.462Z,96456.34
2023-11-23T18:44:15.182Z,96450.94
2023-11-23T18:46:45.451Z,96451.09
2023-11-23T18:49:12.888Z,96435.09
2023-11-23T18:51:39.731Z,96437.56
2023-11-23T18:54:06.450Z,96444.34
2023-11-23T18:56:33.028Z,96434.63
2023-11-23T18:59:00.261Z,96430.31
2023-11-23T19:01:27.247Z,96440.47
2023-11-23T19:03:54.222Z,96429.06
2023-11-23T19:06:23.465Z,96421.69
2023-11-23T19:08:51.165Z,96418.00
2023-11-23T19:11:19.349Z,96404.28
2023-11-23T19:13:46.114Z,96397.97
2023-11-23T19:16:12.817Z,96384.25
2023-11-23T19:18:41.557Z,96370.69
2023-11-23T19:21:09.731Z,96362.84
2023-11-23T19:23:36.939Z,96365.63
2023-11-23T19:26:07.053Z,96369.47
2023-11-23T19:28:34.309Z,96369.00
2023-11-23T19:31:06.345Z,96354.38
2023-11-23T19:33:35.584Z,96368.41
2023-11-23T19:36:02.864Z,96356.84
2023-11-23T19:38:29.656Z,96341.44
2023-11-23T19:41:01.200Z,96325.63
2023-11-23T19:43:30.329Z,96329.91
2023-11-23T19:45:57.500Z,96338.53
2023-11-23T19:48:24.773Z,96325.13
2023-11-23T19:50:51.679Z,96337.63
2023-11-23T19:53:21.544Z,96346.69
2023-11-23T19:55:48.094Z,96341.13
2023-11-23T19:58:15.710Z,96331.13
2023-11-23T20:00:42.750Z,96322.94
2023-11-23T20:03:09.670Z,96324.19
2023-11-23T20:05:36.219Z,96318.47
2023-11-23T20:08:02.985Z,96302.44
2023-11-23T20:10:29.883Z,96287.81
2023-11-23T20:12:56.464Z,96281.19
2023-11-23T20:15:23.026Z,96279.66
2023-11-23T20:17:51.092Z,96277.22
2023-11-23T20:20:17.807Z,96292.94
2023-11-23T20:22:44.489Z,96283.22
2023-11-23T20:25:11.191Z,96291.69
2023-11-23T20:27:37.867Z,96281.50
2023-11-23T20:30:04.920Z,96284.13
2023-11-23T20:32:31.953Z,96256.75
2023-11-23T20:34:58.531Z,96282.28
2023-11-23T20:37:25.150Z,96256.56
2023-11-23T20:39:51.778Z,96266.88
2023-11-23T20:42:18.341Z,96277.00
2023-11-23T20:44:45.052Z,96279.31
2023-11-23T20:47:11.695Z,96281.16
2023-11-23T20:49:38.204Z,96274.38
2023-11-23T20:52:05.047Z,96268.84
2023-11-23T20:54:31.717Z,96261.59
2023-11-23T20:56:58.732Z,96261.94
2023-11-23T20:59:25.738Z,96257.94
2023-11-23T21:01:53.215Z,96250.03
2023-11-23T21:04:26.140Z,96242.53
2023-11-23T21:07:01.507Z,96230.84
2023-11-23T21:09:29.576Z,96223.78
2023-11-23T21:11:56.375Z,96211.28
2023-11-23T21:14:24.452Z,96210.88
2023-11-23T21:16:51.156Z,96202.44
2023-11-23T21:19:17.818Z,96200.13
2023-11-23T21:21:45.201Z,96190.91
2023-11-23T21:24:14.003Z,96190.72
2023-11-23T21:26:41.549Z,96191.97
2023-11-23T21:29:10.492Z,96203.81
2023-11-23T21:31:37.638Z,96183.66
2023-11-23T21:34:05.071Z,96191.50
2023-11-23T21:36:31.935Z,96176.56
2023-11-23T21:38:58.491Z,96165.34
2023-11-23T21:41:25.043Z,96158.09
2023-11-23T21:43:52.048Z,96155.34
2023-11-23T21:46:22.339Z,96147.34
2023-11-23T21:48:49.519Z,96132.59
2023-11-23T21:51:21.387Z,96137.03
2023-11-23T21:53:48.451Z,96132.00
2023-11-23T21:56:15.029Z,96136.19
2023-11-23T21:58:41.834Z,96128.78
2023-11-23T22:01:08.487Z,96126.03
2023-11-23T22:03:35.124Z,96103.88
2023-11-23T22:06:01.953Z,96100.50
2023-11-23T22:08:28.434Z,96083.13
2023-11-23T22:10:54.912Z,96075.88
2023-11-23T22:13:21.478Z,96063.28
2023-11-23T22:15:48.035Z,96067.75
2023-11-23T22:18:14.830Z,96070.41
2023-11-23T22:20:42.611Z,96073.47
2023-11-23T22:23:09.439Z,96079.47
2023-11-23T22:25:36.237Z,96071.63
2023-11-23T22:28:05.160Z,96070.53
2023-11-23T22:30:32.905Z,96064.38
2023-11-23T22:33:00.955Z,96055.13
2023-11-23T22:35:27.862Z,96050.06
2023-11-23T22:37:54.906Z,96030.97
2023-11-23T22:40:21.959Z,96028.38
2023-11-23T22:42:49.418Z,96009.66
2023-11-23T22:45:18.275Z,96005.91
2023-11-23T22:47:44.980Z,95990.66
2023-11-23T22:50:11.576Z,95966.50
2023-11-23T22:52:38.126Z,95952.50
2023-11-23T22:55:05.074Z,95941.44
2023-11-23T22:57:31.657Z,95941.63
2023-11-23T22:59:58.580Z,95939.81
2023-11-23T23:02:25.215Z,95932.69
2023-11-23T23:04:52.458Z,95933.47
2023-11-23T23:07:21.846Z,95920.22
2023-11-23T23:09:48.509Z,95917.69
2023-11-23T23:12:15.292Z,95907.56
2023-11-23T23:14:42.005Z,95900.72
2023-11-23T23:17:08.611Z,95898.91
2023-11-23T23:19:35.119Z,95898.16
2023-11-23T23:22:01.808Z,95897.81
2023-11-23T23:24:28.372Z,95871.88
2023-11-23T23:26:54.973Z,95875.53
2023-11-23T23:29:21.718Z,95863.75
2023-11-23T23:31:48.350Z,95873.38
2023-11-23T23:34:15.486Z,95875.88
2023-11-23T23:36:42.424Z,95864.00
2023-11-23T23:39:09.058Z,95865.31
2023-11-23T23:41:35.598Z,95862.50
2023-11-23T23:44:02.778Z,95861.06
2023-11-23T23:46:29.699Z,95868.63
2023-11-23T23:48:56.338Z,95860.84
2023-11-23T23:51:23.254Z,95847.22
2023-11-23T23:53:49.890Z,95839.44
2023-11-23T23:56:16.441Z,95839.69
2023-11-23T23:58:43.801Z,95824.16
